sensor_id;sensor_type;location;lat;lon;timestamp;P1;durP1;ratioP1;P2;durP2;ratioP2
46308;SDS011;32037;50.820;6.494;2023-11-19T00:01:26;1.20;;;0.60;;
46308;SDS011;32037;50.820;6.494;2023-11-19T00:03:54;1.10;;;0.60;;
46308;SDS011;32037;50.820;6.494;2023-11-19T00:06:22;0.90;;;0.40;;
46308;SDS011;32037;50.820;6.494;2023-11-19T00:08:51;0.90;;;0.40;;
46308;SDS011;32037;50.820;6.494;2023-11-19T00:11:19;0.90;;;0.40;;
46308;SDS011;32037;50.820;6.494;2023-11-19T00:13:49;0.90;;;0.40;;
46308;SDS011;32037;50.820;6.494;2023-11-19T00:16:17;1.20;;;0.50;;
46308;SDS011;32037;50.820;6.494;2023-11-19T00:18:45;1.00;;;0.50;;
46308;SDS011;32037;50.820;6.494;2023-11-19T00:21:13;1.00;;;0.50;;
46308;SDS011;32037;50.820;6.494;2023-11-19T00:23:41;1.63;;;0.40;;
46308;SDS011;32037;50.820;6.494;2023-11-19T00:26:09;0.97;;;0.50;;
46308;SDS011;32037;50.820;6.494;2023-11-19T00:28:40;0.80;;;0.30;;
46308;SDS011;32037;50.820;6.494;2023-11-19T00:31:10;0.90;;;0.40;;
46308;SDS011;32037;50.820;6.494;2023-11-19T00:33:39;1.00;;;0.30;;
46308;SDS011;32037;50.820;6.494;2023-11-19T00:36:10;1.10;;;0.50;;
46308;SDS011;32037;50.820;6.494;2023-11-19T00:38:38;0.80;;;0.30;;
46308;SDS011;32037;50.820;6.494;2023-11-19T00:41:06;1.10;;;0.40;;
46308;SDS011;32037;50.820;6.494;2023-11-19T00:43:34;1.00;;;0.47;;
46308;SDS011;32037;50.820;6.494;2023-11-19T00:46:03;1.00;;;0.30;;
46308;SDS011;32037;50.820;6.494;2023-11-19T00:48:33;1.10;;;0.53;;
46308;SDS011;32037;50.820;6.494;2023-11-19T00:51:01;1.20;;;0.40;;
46308;SDS011;32037;50.820;6.494;2023-11-19T00:53:30;2.20;;;0.60;;
46308;SDS011;32037;50.820;6.494;2023-11-19T00:56:00;1.27;;;0.30;;
46308;SDS011;32037;50.820;6.494;2023-11-19T00:58:28;1.40;;;0.60;;
46308;SDS011;32037;50.820;6.494;2023-11-19T01:00:57;1.00;;;0.30;;
46308;SDS011;32037;50.820;6.494;2023-11-19T01:03:26;0.90;;;0.50;;
46308;SDS011;32037;50.820;6.494;2023-11-19T01:05:55;0.80;;;0.30;;
46308;SDS011;32037;50.820;6.494;2023-11-19T01:08:26;0.90;;;0.40;;
46308;SDS011;32037;50.820;6.494;2023-11-19T01:10:54;0.97;;;0.40;;
46308;SDS011;32037;50.820;6.494;2023-11-19T01:13:22;1.00;;;0.53;;
46308;SDS011;32037;50.820;6.494;2023-11-19T01:15:51;1.17;;;0.50;;
46308;SDS011;32037;50.820;6.494;2023-11-19T01:18:19;1.00;;;0.33;;
46308;SDS011;32037;50.820;6.494;2023-11-19T01:20:47;1.33;;;0.40;;
46308;SDS011;32037;50.820;6.494;2023-11-19T01:23:16;1.10;;;0.50;;
46308;SDS011;32037;50.820;6.494;2023-11-19T01:25:46;1.17;;;0.43;;
46308;SDS011;32037;50.820;6.494;2023-11-19T01:28:14;0.90;;;0.30;;
46308;SDS011;32037;50.820;6.494;2023-11-19T01:30:42;1.10;;;0.37;;
46308;SDS011;32037;50.820;6.494;2023-11-19T01:33:10;1.03;;;0.33;;
46308;SDS011;32037;50.820;6.494;2023-11-19T01:35:39;1.00;;;0.50;;
46308;SDS011;32037;50.820;6.494;2023-11-19T01:38:07;1.40;;;0.80;;
46308;SDS011;32037;50.820;6.494;2023-11-19T01:40:37;1.03;;;0.50;;
46308;SDS011;32037;50.820;6.494;2023-11-19T01:43:05;1.53;;;0.47;;
46308;SDS011;32037;50.820;6.494;2023-11-19T01:45:33;1.97;;;0.40;;
46308;SDS011;32037;50.820;6.494;2023-11-19T01:48:02;1.53;;;0.60;;
46308;SDS011;32037;50.820;6.494;2023-11-19T01:50:31;1.00;;;0.50;;
46308;SDS011;32037;50.820;6.494;2023-11-19T01:53:00;1.27;;;0.60;;
46308;SDS011;32037;50.820;6.494;2023-11-19T01:55:29;1.03;;;0.50;;
46308;SDS011;32037;50.820;6.494;2023-11-19T01:57:59;2.17;;;0.70;;
46308;SDS011;32037;50.820;6.494;2023-11-19T02:00:29;1.60;;;0.40;;
46308;SDS011;32037;50.820;6.494;2023-11-19T02:02:59;1.47;;;0.50;;
46308;SDS011;32037;50.820;6.494;2023-11-19T02:05:30;1.73;;;0.70;;
46308;SDS011;32037;50.820;6.494;2023-11-19T02:07:59;1.73;;;0.50;;
46308;SDS011;32037;50.820;6.494;2023-11-19T02:10:27;3.33;;;0.50;;
46308;SDS011;32037;50.820;6.494;2023-11-19T02:12:55;1.10;;;0.60;;
46308;SDS011;32037;50.820;6.494;2023-11-19T02:15:33;1.30;;;0.50;;
46308;SDS011;32037;50.820;6.494;2023-11-19T02:18:20;1.27;;;0.60;;
46308;SDS011;32037;50.820;6.494;2023-11-19T02:20:49;1.23;;;0.60;;
46308;SDS011;32037;50.820;6.494;2023-11-19T02:23:18;1.50;;;0.50;;
46308;SDS011;32037;50.820;6.494;2023-11-19T02:25:50;1.13;;;0.50;;
46308;SDS011;32037;50.820;6.494;2023-11-19T02:28:28;2.90;;;0.50;;
46308;SDS011;32037;50.820;6.494;2023-11-19T02:30:57;1.73;;;0.57;;
46308;SDS011;32037;50.820;6.494;2023-11-19T02:33:25;3.10;;;0.77;;
46308;SDS011;32037;50.820;6.494;2023-11-19T02:35:53;1.83;;;0.67;;
46308;SDS011;32037;50.820;6.494;2023-11-19T02:38:21;1.43;;;0.63;;
46308;SDS011;32037;50.820;6.494;2023-11-19T02:40:49;1.67;;;0.50;;
46308;SDS011;32037;50.820;6.494;2023-11-19T02:43:17;2.73;;;0.67;;
46308;SDS011;32037;50.820;6.494;2023-11-19T02:45:47;3.40;;;0.50;;
46308;SDS011;32037;50.820;6.494;2023-11-19T02:48:15;2.33;;;0.50;;
46308;SDS011;32037;50.820;6.494;2023-11-19T02:50:43;1.67;;;0.60;;
46308;SDS011;32037;50.820;6.494;2023-11-19T02:53:12;2.10;;;0.70;;
46308;SDS011;32037;50.820;6.494;2023-11-19T02:55:40;1.63;;;0.50;;
46308;SDS011;32037;50.820;6.494;2023-11-19T02:58:14;2.80;;;0.53;;
46308;SDS011;32037;50.820;6.494;2023-11-19T03:00:51;2.40;;;0.50;;
46308;SDS011;32037;50.820;6.494;2023-11-19T03:03:24;1.20;;;0.60;;
46308;SDS011;32037;50.820;6.494;2023-11-19T03:05:57;1.57;;;0.73;;
46308;SDS011;32037;50.820;6.494;2023-11-19T03:08:25;0.93;;;0.37;;
46308;SDS011;32037;50.820;6.494;2023-11-19T03:10:53;1.97;;;0.80;;
46308;SDS011;32037;50.820;6.494;2023-11-19T03:13:21;1.73;;;0.70;;
46308;SDS011;32037;50.820;6.494;2023-11-19T03:15:51;2.00;;;0.80;;
46308;SDS011;32037;50.820;6.494;2023-11-19T03:18:20;1.70;;;0.60;;
46308;SDS011;32037;50.820;6.494;2023-11-19T03:20:48;1.50;;;0.90;;
46308;SDS011;32037;50.820;6.494;2023-11-19T03:23:17;1.23;;;0.50;;
46308;SDS011;32037;50.820;6.494;2023-11-19T03:25:45;1.53;;;0.80;;
46308;SDS011;32037;50.820;6.494;2023-11-19T03:28:13;1.37;;;0.60;;
46308;SDS011;32037;50.820;6.494;2023-11-19T03:30:41;2.70;;;0.70;;
46308;SDS011;32037;50.820;6.494;2023-11-19T03:33:11;1.40;;;0.70;;
46308;SDS011;32037;50.820;6.494;2023-11-19T03:35:40;1.87;;;0.80;;
46308;SDS011;32037;50.820;6.494;2023-11-19T03:38:08;0.90;;;0.40;;
46308;SDS011;32037;50.820;6.494;2023-11-19T03:40:36;3.87;;;0.80;;
46308;SDS011;32037;50.820;6.494;2023-11-19T03:43:05;1.27;;;0.50;;
46308;SDS011;32037;50.820;6.494;2023-11-19T03:45:33;1.90;;;0.70;;
46308;SDS011;32037;50.820;6.494;2023-11-19T03:48:02;1.10;;;0.50;;
46308;SDS011;32037;50.820;6.494;2023-11-19T03:50:32;1.80;;;0.93;;
46308;SDS011;32037;50.820;6.494;2023-11-19T03:53:01;2.50;;;0.73;;
46308;SDS011;32037;50.820;6.494;2023-11-19T03:55:30;1.70;;;0.70;;
46308;SDS011;32037;50.820;6.494;2023-11-19T03:57:59;1.10;;;0.50;;
46308;SDS011;32037;50.820;6.494;2023-11-19T04:00:30;5.47;;;1.00;;
46308;SDS011;32037;50.820;6.494;2023-11-19T04:03:02;1.70;;;0.67;;
46308;SDS011;32037;50.820;6.494;2023-11-19T04:05:32;2.40;;;0.87;;
46308;SDS011;32037;50.820;6.494;2023-11-19T04:08:00;2.27;;;0.90;;
46308;SDS011;32037;50.820;6.494;2023-11-19T04:10:28;2.33;;;0.73;;
46308;SDS011;32037;50.820;6.494;2023-11-19T04:12:57;3.30;;;1.10;;
46308;SDS011;32037;50.820;6.494;2023-11-19T04:15:25;1.40;;;0.70;;
46308;SDS011;32037;50.820;6.494;2023-11-19T04:17:55;2.70;;;0.60;;
46308;SDS011;32037;50.820;6.494;2023-11-19T04:20:23;2.97;;;0.93;;
46308;SDS011;32037;50.820;6.494;2023-11-19T04:22:56;1.97;;;0.70;;
46308;SDS011;32037;50.820;6.494;2023-11-19T04:25:24;1.83;;;0.87;;
46308;SDS011;32037;50.820;6.494;2023-11-19T04:27:52;1.63;;;0.87;;
46308;SDS011;32037;50.820;6.494;2023-11-19T04:30:23;1.73;;;0.90;;
46308;SDS011;32037;50.820;6.494;2023-11-19T04:32:51;4.60;;;0.90;;
46308;SDS011;32037;50.820;6.494;2023-11-19T04:35:19;2.60;;;0.70;;
46308;SDS011;32037;50.820;6.494;2023-11-19T04:37:47;1.87;;;0.60;;
46308;SDS011;32037;50.820;6.494;2023-11-19T04:40:17;2.03;;;0.87;;
46308;SDS011;32037;50.820;6.494;2023-11-19T04:42:45;1.50;;;0.73;;
46308;SDS011;32037;50.820;6.494;2023-11-19T04:45:13;4.20;;;1.47;;
46308;SDS011;32037;50.820;6.494;2023-11-19T04:47:42;2.07;;;0.80;;
46308;SDS011;32037;50.820;6.494;2023-11-19T04:50:10;1.87;;;0.87;;
46308;SDS011;32037;50.820;6.494;2023-11-19T04:52:38;2.37;;;0.83;;
46308;SDS011;32037;50.820;6.494;2023-11-19T04:55:08;1.73;;;1.37;;
46308;SDS011;32037;50.820;6.494;2023-11-19T04:57:40;2.37;;;0.90;;
46308;SDS011;32037;50.820;6.494;2023-11-19T05:00:09;5.37;;;1.00;;
46308;SDS011;32037;50.820;6.494;2023-11-19T05:02:41;2.07;;;0.83;;
46308;SDS011;32037;50.820;6.494;2023-11-19T05:05:09;1.77;;;1.00;;
46308;SDS011;32037;50.820;6.494;2023-11-19T05:07:38;2.60;;;1.23;;
46308;SDS011;32037;50.820;6.494;2023-11-19T05:10:07;1.70;;;0.80;;
46308;SDS011;32037;50.820;6.494;2023-11-19T05:12:35;1.70;;;0.77;;
46308;SDS011;32037;50.820;6.494;2023-11-19T05:15:07;2.20;;;0.80;;
46308;SDS011;32037;50.820;6.494;2023-11-19T05:17:35;2.93;;;1.03;;
46308;SDS011;32037;50.820;6.494;2023-11-19T05:20:04;3.13;;;1.10;;
46308;SDS011;32037;50.820;6.494;2023-11-19T05:22:39;3.27;;;1.30;;
46308;SDS011;32037;50.820;6.494;2023-11-19T05:25:08;3.10;;;1.17;;
46308;SDS011;32037;50.820;6.494;2023-11-19T05:27:37;2.70;;;0.90;;
46308;SDS011;32037;50.820;6.494;2023-11-19T05:30:07;4.00;;;1.53;;
46308;SDS011;32037;50.820;6.494;2023-11-19T05:32:36;2.50;;;1.00;;
46308;SDS011;32037;50.820;6.494;2023-11-19T05:35:05;2.50;;;0.97;;
46308;SDS011;32037;50.820;6.494;2023-11-19T05:37:36;3.67;;;1.20;;
46308;SDS011;32037;50.820;6.494;2023-11-19T05:40:05;3.57;;;1.20;;
46308;SDS011;32037;50.820;6.494;2023-11-19T05:42:41;3.13;;;1.07;;
46308;SDS011;32037;50.820;6.494;2023-11-19T05:45:13;4.27;;;1.20;;
46308;SDS011;32037;50.820;6.494;2023-11-19T05:47:42;1.87;;;1.00;;
46308;SDS011;32037;50.820;6.494;2023-11-19T05:50:10;2.03;;;1.20;;
46308;SDS011;32037;50.820;6.494;2023-11-19T05:52:38;6.70;;;1.43;;
46308;SDS011;32037;50.820;6.494;2023-11-19T05:55:06;6.03;;;1.20;;
46308;SDS011;32037;50.820;6.494;2023-11-19T05:57:37;4.53;;;1.50;;
46308;SDS011;32037;50.820;6.494;2023-11-19T06:00:09;4.00;;;1.20;;
46308;SDS011;32037;50.820;6.494;2023-11-19T06:02:40;2.20;;;1.13;;
46308;SDS011;32037;50.820;6.494;2023-11-19T06:05:09;3.40;;;0.97;;
46308;SDS011;32037;50.820;6.494;2023-11-19T06:07:37;1.80;;;1.10;;
46308;SDS011;32037;50.820;6.494;2023-11-19T06:10:05;2.20;;;1.50;;
46308;SDS011;32037;50.820;6.494;2023-11-19T06:12:36;3.53;;;1.23;;
46308;SDS011;32037;50.820;6.494;2023-11-19T06:15:07;4.23;;;0.90;;
46308;SDS011;32037;50.820;6.494;2023-11-19T06:17:36;1.60;;;1.00;;
46308;SDS011;32037;50.820;6.494;2023-11-19T06:20:07;2.40;;;1.20;;
46308;SDS011;32037;50.820;6.494;2023-11-19T06:22:38;4.20;;;1.37;;
46308;SDS011;32037;50.820;6.494;2023-11-19T06:25:06;5.40;;;1.37;;
46308;SDS011;32037;50.820;6.494;2023-11-19T06:27:35;2.37;;;1.20;;
46308;SDS011;32037;50.820;6.494;2023-11-19T06:30:03;3.23;;;1.10;;
46308;SDS011;32037;50.820;6.494;2023-11-19T06:32:32;4.60;;;1.80;;
46308;SDS011;32037;50.820;6.494;2023-11-19T06:35:00;2.50;;;1.00;;
46308;SDS011;32037;50.820;6.494;2023-11-19T06:37:33;5.00;;;1.50;;
46308;SDS011;32037;50.820;6.494;2023-11-19T06:40:01;2.30;;;1.30;;
46308;SDS011;32037;50.820;6.494;2023-11-19T06:42:31;4.50;;;1.53;;
46308;SDS011;32037;50.820;6.494;2023-11-19T06:44:59;3.47;;;1.43;;
46308;SDS011;32037;50.820;6.494;2023-11-19T06:47:27;5.20;;;1.40;;
46308;SDS011;32037;50.820;6.494;2023-11-19T06:49:55;6.40;;;1.53;;
46308;SDS011;32037;50.820;6.494;2023-11-19T06:52:23;2.37;;;1.83;;
46308;SDS011;32037;50.820;6.494;2023-11-19T06:54:53;2.80;;;1.43;;
46308;SDS011;32037;50.820;6.494;2023-11-19T06:57:33;3.67;;;0.90;;
46308;SDS011;32037;50.820;6.494;2023-11-19T07:00:05;3.37;;;1.57;;
46308;SDS011;32037;50.820;6.494;2023-11-19T07:02:35;3.80;;;1.67;;
46308;SDS011;32037;50.820;6.494;2023-11-19T07:05:03;2.03;;;0.90;;
46308;SDS011;32037;50.820;6.494;2023-11-19T07:07:35;3.00;;;0.97;;
46308;SDS011;32037;50.820;6.494;2023-11-19T07:10:08;12.07;;;1.50;;
46308;SDS011;32037;50.820;6.494;2023-11-19T07:12:36;7.87;;;1.63;;
46308;SDS011;32037;50.820;6.494;2023-11-19T07:15:05;4.80;;;1.20;;
46308;SDS011;32037;50.820;6.494;2023-11-19T07:17:35;3.40;;;1.20;;
46308;SDS011;32037;50.820;6.494;2023-11-19T07:20:04;3.93;;;1.00;;
46308;SDS011;32037;50.820;6.494;2023-11-19T07:22:32;1.83;;;1.10;;
46308;SDS011;32037;50.820;6.494;2023-11-19T07:25:04;3.87;;;2.00;;
46308;SDS011;32037;50.820;6.494;2023-11-19T07:27:35;5.93;;;1.47;;
46308;SDS011;32037;50.820;6.494;2023-11-19T07:30:05;6.13;;;1.57;;
46308;SDS011;32037;50.820;6.494;2023-11-19T07:32:34;4.53;;;1.20;;
46308;SDS011;32037;50.820;6.494;2023-11-19T07:35:02;4.87;;;1.80;;
46308;SDS011;32037;50.820;6.494;2023-11-19T07:37:30;3.60;;;1.73;;
46308;SDS011;32037;50.820;6.494;2023-11-19T07:39:58;5.30;;;1.47;;
46308;SDS011;32037;50.820;6.494;2023-11-19T07:42:26;7.03;;;1.57;;
46308;SDS011;32037;50.820;6.494;2023-11-19T07:44:56;4.53;;;1.27;;
46308;SDS011;32037;50.820;6.494;2023-11-19T07:47:24;3.33;;;1.40;;
46308;SDS011;32037;50.820;6.494;2023-11-19T07:49:53;2.90;;;1.60;;
46308;SDS011;32037;50.820;6.494;2023-11-19T07:52:23;3.10;;;1.90;;
46308;SDS011;32037;50.820;6.494;2023-11-19T07:54:51;4.80;;;1.17;;
46308;SDS011;32037;50.820;6.494;2023-11-19T07:57:19;4.03;;;1.53;;
46308;SDS011;32037;50.820;6.494;2023-11-19T07:59:47;5.70;;;1.60;;
46308;SDS011;32037;50.820;6.494;2023-11-19T08:02:16;6.30;;;1.43;;
46308;SDS011;32037;50.820;6.494;2023-11-19T08:04:45;6.03;;;1.63;;
46308;SDS011;32037;50.820;6.494;2023-11-19T08:07:16;4.80;;;1.20;;
46308;SDS011;32037;50.820;6.494;2023-11-19T08:09:45;4.80;;;1.67;;
46308;SDS011;32037;50.820;6.494;2023-11-19T08:12:13;2.93;;;1.37;;
46308;SDS011;32037;50.820;6.494;2023-11-19T08:14:42;3.70;;;1.60;;
46308;SDS011;32037;50.820;6.494;2023-11-19T08:17:11;5.03;;;1.43;;
46308;SDS011;32037;50.820;6.494;2023-11-19T08:19:40;6.43;;;1.77;;
46308;SDS011;32037;50.820;6.494;2023-11-19T08:22:08;6.73;;;1.90;;
46308;SDS011;32037;50.820;6.494;2023-11-19T08:24:36;3.40;;;1.47;;
46308;SDS011;32037;50.820;6.494;2023-11-19T08:27:04;3.87;;;1.50;;
46308;SDS011;32037;50.820;6.494;2023-11-19T08:29:33;4.60;;;1.37;;
46308;SDS011;32037;50.820;6.494;2023-11-19T08:32:01;3.60;;;1.73;;
46308;SDS011;32037;50.820;6.494;2023-11-19T08:34:29;3.70;;;1.40;;
46308;SDS011;32037;50.820;6.494;2023-11-19T08:36:59;4.37;;;1.20;;
46308;SDS011;32037;50.820;6.494;2023-11-19T08:39:28;4.30;;;1.60;;
46308;SDS011;32037;50.820;6.494;2023-11-19T08:41:57;10.17;;;2.40;;
46308;SDS011;32037;50.820;6.494;2023-11-19T08:44:25;11.93;;;1.57;;
46308;SDS011;32037;50.820;6.494;2023-11-19T08:46:53;3.20;;;1.03;;
46308;SDS011;32037;50.820;6.494;2023-11-19T08:49:22;5.33;;;1.80;;
46308;SDS011;32037;50.820;6.494;2023-11-19T08:51:50;6.63;;;1.33;;
46308;SDS011;32037;50.820;6.494;2023-11-19T08:54:19;4.50;;;1.50;;
46308;SDS011;32037;50.820;6.494;2023-11-19T08:56:49;4.37;;;1.50;;
46308;SDS011;32037;50.820;6.494;2023-11-19T08:59:17;3.90;;;1.50;;
46308;SDS011;32037;50.820;6.494;2023-11-19T09:01:45;4.63;;;1.53;;
46308;SDS011;32037;50.820;6.494;2023-11-19T09:04:13;4.47;;;1.87;;
46308;SDS011;32037;50.820;6.494;2023-11-19T09:06:42;5.03;;;1.77;;
46308;SDS011;32037;50.820;6.494;2023-11-19T09:09:13;5.93;;;1.87;;
46308;SDS011;32037;50.820;6.494;2023-11-19T09:11:42;3.07;;;1.70;;
46308;SDS011;32037;50.820;6.494;2023-11-19T09:14:10;6.00;;;2.60;;
46308;SDS011;32037;50.820;6.494;2023-11-19T09:16:38;4.47;;;1.80;;
46308;SDS011;32037;50.820;6.494;2023-11-19T09:19:06;4.97;;;1.60;;
46308;SDS011;32037;50.820;6.494;2023-11-19T09:21:35;6.93;;;1.87;;
46308;SDS011;32037;50.820;6.494;2023-11-19T09:24:04;6.80;;;2.23;;
46308;SDS011;32037;50.820;6.494;2023-11-19T09:26:34;5.27;;;1.87;;
46308;SDS011;32037;50.820;6.494;2023-11-19T09:29:09;5.70;;;2.23;;
46308;SDS011;32037;50.820;6.494;2023-11-19T09:31:37;6.67;;;2.37;;
46308;SDS011;32037;50.820;6.494;2023-11-19T09:34:06;8.90;;;1.77;;
46308;SDS011;32037;50.820;6.494;2023-11-19T09:36:34;5.27;;;2.10;;
46308;SDS011;32037;50.820;6.494;2023-11-19T09:39:02;6.73;;;1.90;;
46308;SDS011;32037;50.820;6.494;2023-11-19T09:41:31;5.20;;;1.80;;
46308;SDS011;32037;50.820;6.494;2023-11-19T09:44:01;5.10;;;2.17;;
46308;SDS011;32037;50.820;6.494;2023-11-19T09:46:31;7.50;;;2.30;;
46308;SDS011;32037;50.820;6.494;2023-11-19T09:49:03;4.40;;;1.50;;
46308;SDS011;32037;50.820;6.494;2023-11-19T09:51:35;7.97;;;2.20;;
46308;SDS011;32037;50.820;6.494;2023-11-19T09:54:03;3.50;;;1.47;;
46308;SDS011;32037;50.820;6.494;2023-11-19T09:56:32;4.20;;;1.50;;
46308;SDS011;32037;50.820;6.494;2023-11-19T09:59:03;6.00;;;2.00;;
46308;SDS011;32037;50.820;6.494;2023-11-19T10:01:33;4.40;;;2.10;;
46308;SDS011;32037;50.820;6.494;2023-11-19T10:04:06;4.10;;;1.80;;
46308;SDS011;32037;50.820;6.494;2023-11-19T10:06:35;4.97;;;1.77;;
46308;SDS011;32037;50.820;6.494;2023-11-19T10:09:03;5.70;;;1.60;;
46308;SDS011;32037;50.820;6.494;2023-11-19T10:11:31;6.67;;;2.03;;
46308;SDS011;32037;50.820;6.494;2023-11-19T10:13:59;8.70;;;2.57;;
46308;SDS011;32037;50.820;6.494;2023-11-19T10:16:28;5.57;;;2.07;;
46308;SDS011;32037;50.820;6.494;2023-11-19T10:18:59;5.87;;;2.67;;
46308;SDS011;32037;50.820;6.494;2023-11-19T10:21:27;7.10;;;2.10;;
46308;SDS011;32037;50.820;6.494;2023-11-19T10:23:58;9.20;;;2.30;;
46308;SDS011;32037;50.820;6.494;2023-11-19T10:26:27;10.00;;;2.17;;
46308;SDS011;32037;50.820;6.494;2023-11-19T10:28:55;4.97;;;2.00;;
46308;SDS011;32037;50.820;6.494;2023-11-19T10:31:24;5.23;;;2.40;;
46308;SDS011;32037;50.820;6.494;2023-11-19T10:33:53;5.97;;;2.10;;
46308;SDS011;32037;50.820;6.494;2023-11-19T10:36:23;8.70;;;3.17;;
46308;SDS011;32037;50.820;6.494;2023-11-19T10:39:05;5.30;;;1.83;;
46308;SDS011;32037;50.820;6.494;2023-11-19T10:41:35;9.97;;;3.00;;
46308;SDS011;32037;50.820;6.494;2023-11-19T10:44:06;7.57;;;2.17;;
46308;SDS011;32037;50.820;6.494;2023-11-19T10:46:37;6.40;;;2.40;;
46308;SDS011;32037;50.820;6.494;2023-11-19T10:49:06;3.53;;;1.50;;
46308;SDS011;32037;50.820;6.494;2023-11-19T10:51:37;5.77;;;1.93;;
46308;SDS011;32037;50.820;6.494;2023-11-19T10:54:10;5.93;;;2.30;;
46308;SDS011;32037;50.820;6.494;2023-11-19T10:56:43;4.47;;;2.00;;
46308;SDS011;32037;50.820;6.494;2023-11-19T10:59:14;7.00;;;2.27;;
46308;SDS011;32037;50.820;6.494;2023-11-19T11:01:48;6.33;;;2.17;;
46308;SDS011;32037;50.820;6.494;2023-11-19T11:04:22;9.10;;;2.47;;
46308;SDS011;32037;50.820;6.494;2023-11-19T11:06:54;10.27;;;2.30;;
46308;SDS011;32037;50.820;6.494;2023-11-19T11:09:25;7.40;;;2.20;;
46308;SDS011;32037;50.820;6.494;2023-11-19T11:11:54;6.00;;;1.77;;
46308;SDS011;32037;50.820;6.494;2023-11-19T11:14:26;4.80;;;1.67;;
46308;SDS011;32037;50.820;6.494;2023-11-19T11:16:55;8.10;;;2.03;;
46308;SDS011;32037;50.820;6.494;2023-11-19T11:19:25;3.87;;;1.83;;
46308;SDS011;32037;50.820;6.494;2023-11-19T11:21:55;9.07;;;2.57;;
46308;SDS011;32037;50.820;6.494;2023-11-19T11:24:33;7.53;;;2.00;;
46308;SDS011;32037;50.820;6.494;2023-11-19T11:27:26;7.53;;;2.40;;
46308;SDS011;32037;50.820;6.494;2023-11-19T11:30:11;7.00;;;2.03;;
46308;SDS011;32037;50.820;6.494;2023-11-19T11:32:51;5.50;;;1.80;;
46308;SDS011;32037;50.820;6.494;2023-11-19T11:35:29;7.43;;;2.10;;
46308;SDS011;32037;50.820;6.494;2023-11-19T11:38:06;4.43;;;1.67;;
46308;SDS011;32037;50.820;6.494;2023-11-19T11:40:35;8.30;;;1.93;;
46308;SDS011;32037;50.820;6.494;2023-11-19T11:43:12;4.27;;;1.47;;
46308;SDS011;32037;50.820;6.494;2023-11-19T11:49:27;5.10;;;1.60;;
46308;SDS011;32037;50.820;6.494;2023-11-19T11:51:58;5.47;;;2.00;;
46308;SDS011;32037;50.820;6.494;2023-11-19T11:54:29;3.70;;;1.80;;
46308;SDS011;32037;50.820;6.494;2023-11-19T11:57:02;4.60;;;1.90;;
46308;SDS011;32037;50.820;6.494;2023-11-19T11:59:41;5.97;;;1.63;;
46308;SDS011;32037;50.820;6.494;2023-11-19T12:02:13;6.70;;;2.23;;
46308;SDS011;32037;50.820;6.494;2023-11-19T12:04:46;1.77;;;1.30;;
46308;SDS011;32037;50.820;6.494;2023-11-19T12:07:16;3.77;;;1.77;;
46308;SDS011;32037;50.820;6.494;2023-11-19T12:09:51;5.53;;;2.00;;
46308;SDS011;32037;50.820;6.494;2023-11-19T12:12:26;5.07;;;1.63;;
46308;SDS011;32037;50.820;6.494;2023-11-19T12:14:59;5.73;;;1.93;;
46308;SDS011;32037;50.820;6.494;2023-11-19T12:17:43;4.90;;;1.23;;
46308;SDS011;32037;50.820;6.494;2023-11-19T12:20:16;8.40;;;2.03;;
46308;SDS011;32037;50.820;6.494;2023-11-19T12:23:00;4.10;;;1.63;;
46308;SDS011;32037;50.820;6.494;2023-11-19T12:25:37;4.53;;;1.70;;
46308;SDS011;32037;50.820;6.494;2023-11-19T12:28:05;4.27;;;1.50;;
46308;SDS011;32037;50.820;6.494;2023-11-19T12:30:39;3.10;;;1.37;;
46308;SDS011;32037;50.820;6.494;2023-11-19T12:33:08;7.63;;;1.70;;
46308;SDS011;32037;50.820;6.494;2023-11-19T12:35:38;4.00;;;1.33;;
46308;SDS011;32037;50.820;6.494;2023-11-19T12:38:07;3.50;;;2.07;;
46308;SDS011;32037;50.820;6.494;2023-11-19T12:40:37;2.50;;;1.37;;
46308;SDS011;32037;50.820;6.494;2023-11-19T12:43:05;7.23;;;2.27;;
46308;SDS011;32037;50.820;6.494;2023-11-19T12:45:36;4.73;;;1.60;;
46308;SDS011;32037;50.820;6.494;2023-11-19T12:48:05;4.30;;;1.73;;
46308;SDS011;32037;50.820;6.494;2023-11-19T12:53:24;4.57;;;1.50;;
46308;SDS011;32037;50.820;6.494;2023-11-19T12:55:55;7.90;;;2.10;;
46308;SDS011;32037;50.820;6.494;2023-11-19T12:58:30;6.57;;;1.80;;
46308;SDS011;32037;50.820;6.494;2023-11-19T13:00:59;8.90;;;1.90;;
46308;SDS011;32037;50.820;6.494;2023-11-19T13:03:31;4.03;;;1.90;;
46308;SDS011;32037;50.820;6.494;2023-11-19T13:06:03;4.77;;;2.57;;
46308;SDS011;32037;50.820;6.494;2023-11-19T13:08:37;10.93;;;3.00;;
46308;SDS011;32037;50.820;6.494;2023-11-19T13:11:08;4.60;;;1.50;;
46308;SDS011;32037;50.820;6.494;2023-11-19T13:13:55;6.33;;;2.07;;
46308;SDS011;32037;50.820;6.494;2023-11-19T13:16:24;3.33;;;1.80;;
46308;SDS011;32037;50.820;6.494;2023-11-19T13:18:53;4.23;;;2.07;;
46308;SDS011;32037;50.820;6.494;2023-11-19T13:21:23;5.80;;;2.13;;
46308;SDS011;32037;50.820;6.494;2023-11-19T13:23:52;6.00;;;1.67;;
46308;SDS011;32037;50.820;6.494;2023-11-19T13:26:24;4.50;;;1.50;;
46308;SDS011;32037;50.820;6.494;2023-11-19T13:28:52;4.33;;;1.90;;
46308;SDS011;32037;50.820;6.494;2023-11-19T13:31:20;4.17;;;1.77;;
46308;SDS011;32037;50.820;6.494;2023-11-19T13:33:48;3.83;;;1.57;;
46308;SDS011;32037;50.820;6.494;2023-11-19T13:36:17;5.40;;;1.70;;
46308;SDS011;32037;50.820;6.494;2023-11-19T13:38:46;7.53;;;2.70;;
46308;SDS011;32037;50.820;6.494;2023-11-19T13:41:14;5.40;;;2.00;;
46308;SDS011;32037;50.820;6.494;2023-11-19T13:43:43;7.57;;;1.77;;
46308;SDS011;32037;50.820;6.494;2023-11-19T13:46:12;3.80;;;1.90;;
46308;SDS011;32037;50.820;6.494;2023-11-19T13:48:40;5.33;;;2.00;;
46308;SDS011;32037;50.820;6.494;2023-11-19T13:51:08;6.00;;;2.27;;
46308;SDS011;32037;50.820;6.494;2023-11-19T13:53:37;4.23;;;2.00;;
46308;SDS011;32037;50.820;6.494;2023-11-19T13:56:09;6.67;;;2.40;;
46308;SDS011;32037;50.820;6.494;2023-11-19T13:58:37;4.77;;;1.93;;
46308;SDS011;32037;50.820;6.494;2023-11-19T14:01:07;4.03;;;1.70;;
46308;SDS011;32037;50.820;6.494;2023-11-19T14:03:36;5.13;;;1.67;;
46308;SDS011;32037;50.820;6.494;2023-11-19T14:06:04;5.47;;;1.70;;
46308;SDS011;32037;50.820;6.494;2023-11-19T14:08:34;4.43;;;1.47;;
46308;SDS011;32037;50.820;6.494;2023-11-19T14:11:05;4.43;;;2.03;;
46308;SDS011;32037;50.820;6.494;2023-11-19T14:13:33;4.27;;;1.50;;
46308;SDS011;32037;50.820;6.494;2023-11-19T14:16:02;8.40;;;2.47;;
46308;SDS011;32037;50.820;6.494;2023-11-19T14:18:34;6.67;;;2.00;;
46308;SDS011;32037;50.820;6.494;2023-11-19T14:21:02;4.70;;;1.63;;
46308;SDS011;32037;50.820;6.494;2023-11-19T14:23:33;4.83;;;1.73;;
46308;SDS011;32037;50.820;6.494;2023-11-19T14:26:04;3.83;;;1.70;;
46308;SDS011;32037;50.820;6.494;2023-11-19T14:28:32;6.87;;;1.70;;
46308;SDS011;32037;50.820;6.494;2023-11-19T14:31:00;6.37;;;1.87;;
46308;SDS011;32037;50.820;6.494;2023-11-19T14:33:28;3.97;;;1.63;;
46308;SDS011;32037;50.820;6.494;2023-11-19T14:36:02;3.57;;;1.93;;
46308;SDS011;32037;50.820;6.494;2023-11-19T14:38:32;4.67;;;2.03;;
46308;SDS011;32037;50.820;6.494;2023-11-19T14:41:00;4.80;;;2.40;;
46308;SDS011;32037;50.820;6.494;2023-11-19T14:43:27;3.47;;;1.27;;
46308;SDS011;32037;50.820;6.494;2023-11-19T14:45:55;6.87;;;2.40;;
46308;SDS011;32037;50.820;6.494;2023-11-19T14:48:24;4.40;;;1.80;;
46308;SDS011;32037;50.820;6.494;2023-11-19T14:50:53;4.57;;;1.67;;
46308;SDS011;32037;50.820;6.494;2023-11-19T14:53:21;6.40;;;1.80;;
46308;SDS011;32037;50.820;6.494;2023-11-19T14:55:49;2.40;;;1.60;;
46308;SDS011;32037;50.820;6.494;2023-11-19T14:58:18;2.50;;;1.60;;
46308;SDS011;32037;50.820;6.494;2023-11-19T15:00:48;4.37;;;2.00;;
46308;SDS011;32037;50.820;6.494;2023-11-19T15:03:16;5.07;;;1.70;;
46308;SDS011;32037;50.820;6.494;2023-11-19T15:05:48;4.20;;;1.43;;
46308;SDS011;32037;50.820;6.494;2023-11-19T15:08:19;3.13;;;1.60;;
46308;SDS011;32037;50.820;6.494;2023-11-19T15:10:50;6.40;;;1.57;;